Time;durP1;ratioP1;P1;durP2;ratioP2;P2;SDS_P1;SDS_P2;PMS_P1;PMS_P2;Temp;Humidity;BMP_temperature;BMP_pressure;BME280_temperature;BME280_humidity;BME280_pressure;Samples;Min_cycle;Max_cycle;Signal;HPM_P1;HPM_P2
2022/03/02 00:00:50;;;;;;;;;;;;;;;;;;4206272;28;876;-57
2022/03/02 00:03:11;;;;;;;;;;;;;;;;;;4206048;28;1009;-57
2022/03/02 00:05:32;;;;;;;;;;;;;;;;;;4205779;28;1020;-57
2022/03/02 00:07:53;;;;;;;;;;;;;;;;;;4205930;28;837;-56
2022/03/02 00:10:13;;;;;;;;;;;;;;;;;;4205847;28;987;-57
2022/03/02 00:12:34;;;;;;;;;;;;;;;;;;4205681;28;1013;-57
2022/03/02 00:14:54;;;;;;;;;;;;;;;;;;4205818;28;1913;-56
2022/03/02 00:17:15;;;;;;;;;;;;;;;;;;4205385;28;910;-57
2022/03/02 00:19:35;;;;;;;;;;;;;;;;;;4205736;28;932;-56
2022/03/02 00:21:56;;;;;;;;;;;;;;;;;;4218696;28;954;-56
2022/03/02 00:24:17;;;;;;;;;;;;;;;;;;4204471;28;913;-56
2022/03/02 00:26:38;;;;;;;;;;;;;;;;;;4205416;28;887;-57
2022/03/02 00:28:58;;;;;;;;;;;;;;;;;;4205600;28;915;-58
2022/03/02 00:31:18;;;;;;;;;;;;;;;;;;4204379;28;1063;-56
2022/03/02 00:33:39;;;;;;;;;;;;;;;;;;4205774;28;948;-57
2022/03/02 00:36:00;;;;;;;;;;;;;;;;;;4205541;28;1906;-57
2022/03/02 00:38:20;;;;;;;;;;;;;;;;;;4205482;28;1053;-56
2022/03/02 00:40:41;;;;;;;;;;;;;;;;;;4205181;28;982;-56
2022/03/02 00:43:02;;;;;;;;;;;;;;;;;;4205536;28;1026;-57
2022/03/02 00:45:25;;;;;;;;;;;;;;;;;;4205633;28;937;-56
2022/03/02 00:47:45;;;;;;;;;;;;;;;;;;4205547;28;936;-57
2022/03/02 00:50:06;;;;;;;;;;;;;;;;;;4205687;28;819;-56
2022/03/02 00:52:26;;;;;;;;;;;;;;;;;;4204390;28;963;-57
2022/03/02 00:54:47;;;;;;;;;;;;;;;;;;4205351;28;1104;-57
2022/03/02 00:57:07;;;;;;;;;;;;;;;;;;4205381;28;862;-57
2022/03/02 00:59:28;;;;;;;;;;;;;;;;;;4205514;28;1040;-56
2022/03/02 01:01:49;;;;;;;;;;;;;;;;;;4205142;28;1249;-56
2022/03/02 01:04:09;;;;;;;;;;;;;;;;;;4204266;28;861;-57
2022/03/02 01:06:30;;;;;;;;;;;;;;;;;;4203697;28;1052;-56
2022/03/02 01:08:50;;;;;;;;;;;;;;;;;;4205455;28;1142;-56
2022/03/02 01:11:11;;;;;;;;;;;;;;;;;;4205416;28;820;-57
2022/03/02 01:13:32;;;;;;;;;;;;;;;;;;4205682;28;866;-56
2022/03/02 01:15:52;;;;;;;;;;;;;;;;;;4205283;28;1910;-57
2022/03/02 01:18:13;;;;;;;;;;;;;;;;;;4205012;28;945;-57
2022/03/02 01:20:33;;;;;;;;;;;;;;;;;;4205124;28;1007;-57
2022/03/02 01:22:54;;;;;;;;;;;;;;;;;;4205047;28;1065;-56
2022/03/02 01:25:14;;;;;;;;;;;;;;;;;;4205026;28;1010;-57
2022/03/02 01:27:35;;;;;;;;;;;;;;;;;;4204962;28;1002;-56
2022/03/02 01:29:56;;;;;;;;;;;;;;;;;;4204799;28;818;-57
2022/03/02 01:32:16;;;;;;;;;;;;;;;;;;4203776;28;1016;-57
2022/03/02 01:34:37;;;;;;;;;;;;;;;;;;4217898;28;1128;-56
2022/03/02 01:36:57;;;;;;;;;;;;;;;;;;4204728;28;1929;-56
2022/03/02 01:39:18;;;;;;;;;;;;;;;;;;4204884;28;1098;-57
2022/03/02 01:41:39;;;;;;;;;;;;;;;;;;4203744;28;1049;-57
2022/03/02 01:43:59;;;;;;;;;;;;;;;;;;4204693;28;948;-57
2022/03/02 01:46:20;;;;;;;;;;;;;;;;;;4204634;28;1175;-56
2022/03/02 01:48:41;;;;;;;;;;;;;;;;;;4204513;28;727;-56
2022/03/02 01:51:01;;;;;;;;;;;;;;;;;;4204413;28;932;-56
2022/03/02 01:53:22;;;;;;;;;;;;;;;;;;4204449;28;1010;-56
2022/03/02 01:55:43;;;;;;;;;;;;;;;;;;4204382;28;2000;-56
2022/03/02 01:58:03;;;;;;;;;;;;;;;;;;4203921;28;822;-57
2022/03/02 02:04:17;;;;;;;;;;;;;;;;;;4203994;28;985;-56
2022/03/02 02:06:37;;;;;;;;;;;;;;;;;;4216798;28;978;-56
2022/03/02 02:08:58;;;;;;;;;;;;;;;;;;4203772;28;1111;-56
2022/03/02 02:11:19;;;;;;;;;;;;;;;;;;4202581;28;1030;-57
2022/03/02 02:13:39;;;;;;;;;;;;;;;;;;4203277;28;1035;-56
2022/03/02 02:16:00;;;;;;;;;;;;;;;;;;4203358;28;1913;-57
2022/03/02 02:18:20;;;;;;;;;;;;;;;;;;4203298;28;1056;-57
2022/03/02 02:20:41;;;;;;;;;;;;;;;;;;4203529;28;858;-56
2022/03/02 02:23:02;;;;;;;;;;;;;;;;;;4201860;28;1135;-56
2022/03/02 02:25:22;;;;;;;;;;;;;;;;;;4203696;28;1013;-57
2022/03/02 02:27:44;;;;;;;;;;;;;;;;;;4203569;28;942;-56
2022/03/02 02:30:05;;;;;;;;;;;;;;;;;;4203692;28;1062;-57
2022/03/02 02:32:25;;;;;;;;;;;;;;;;;;4202757;28;850;-57
2022/03/02 02:34:46;;;;;;;;;;;;;;;;;;4204062;28;802;-56
2022/03/02 02:37:07;;;;;;;;;;;;;;;;;;4204020;28;2039;-57
2022/03/02 02:39:27;;;;;;;;;;;;;;;;;;4203550;28;1005;-56
2022/03/02 02:41:48;;;;;;;;;;;;;;;;;;4203775;28;949;-56
2022/03/02 02:44:09;;;;;;;;;;;;;;;;;;4203424;28;1133;-56
2022/03/02 02:46:30;;;;;;;;;;;;;;;;;;4203592;28;913;-56
2022/03/02 02:48:50;;;;;;;;;;;;;;;;;;4203831;28;808;-57
2022/03/02 02:51:11;;;;;;;;;;;;;;;;;;4203342;28;935;-56
2022/03/02 02:53:31;;;;;;;;;;;;;;;;;;4203559;28;823;-56
2022/03/02 02:55:53;;;;;;;;;;;;;;;;;;4216651;28;1981;-56
2022/03/02 02:58:13;;;;;;;;;;;;;;;;;;4203557;28;820;-56
2022/03/02 03:00:35;;;;;;;;;;;;;;;;;;4203664;28;1209;-56
2022/03/02 03:02:55;;;;;;;;;;;;;;;;;;4202661;28;1035;-56
2022/03/02 03:05:16;;;;;;;;;;;;;;;;;;4203512;28;819;-58
2022/03/02 03:07:36;;;;;;;;;;;;;;;;;;4203772;28;1112;-56
2022/03/02 03:09:57;;;;;;;;;;;;;;;;;;4203684;28;910;-56
2022/03/02 03:12:17;;;;;;;;;;;;;;;;;;4203399;28;1005;-57
2022/03/02 03:14:38;;;;;;;;;;;;;;;;;;4203509;28;1040;-56
2022/03/02 03:16:59;;;;;;;;;;;;;;;;;;4203542;28;1914;-57
2022/03/02 03:19:19;;;;;;;;;;;;;;;;;;4203604;28;1142;-56
2022/03/02 03:21:40;;;;;;;;;;;;;;;;;;4202698;28;834;-56
2022/03/02 03:24:00;;;;;;;;;;;;;;;;;;4201753;28;1026;-56
2022/03/02 03:26:21;;;;;;;;;;;;;;;;;;4202131;28;1604;-57
2022/03/02 03:28:42;;;;;;;;;;;;;;;;;;4201564;28;805;-56
2022/03/02 03:31:03;;;;;;;;;;;;;;;;;;4188309;28;844;-56
2022/03/02 03:33:23;;;;;;;;;;;;;;;;;;4203479;28;887;-56
2022/03/02 03:35:44;;;;;;;;;;;;;;;;;;4203159;28;894;-56
2022/03/02 03:38:05;;;;;;;;;;;;;;;;;;4216539;28;1064;-56
2022/03/02 03:40:25;;;;;;;;;;;;;;;;;;4203315;28;1009;-56
2022/03/02 03:42:45;;;;;;;;;;;;;;;;;;4203122;28;925;-56
2022/03/02 03:45:06;;;;;;;;;;;;;;;;;;4216377;28;1285;-56
2022/03/02 03:47:26;;;;;;;;;;;;;;;;;;4202979;28;1088;-57
2022/03/02 03:49:47;;;;;;;;;;;;;;;;;;4202820;28;817;-56
2022/03/02 03:52:08;;;;;;;;;;;;;;;;;;4203163;28;1025;-56
2022/03/02 03:54:29;;;;;;;;;;;;;;;;;;4203156;28;942;-56
2022/03/02 03:56:49;;;;;;;;;;;;;;;;;;4202009;28;1980;-56
2022/03/02 03:59:10;;;;;;;;;;;;;;;;;;4202516;28;992;-56
2022/03/02 04:01:31;;;;;;;;;;;;;;;;;;4203039;28;865;-57
2022/03/02 04:03:51;;;;;;;;;;;;;;;;;;4202800;28;827;-56
2022/03/02 04:06:12;;;;;;;;;;;;;;;;;;4202540;28;825;-55
2022/03/02 04:08:32;;;;;;;;;;;;;;;;;;4215760;28;846;-54
2022/03/02 04:10:53;;;;;;;;;;;;;;;;;;4202800;28;1056;-55
2022/03/02 04:13:14;;;;;;;;;;;;;;;;;;4202666;28;967;-55
2022/03/02 04:15:34;;;;;;;;;;;;;;;;;;4215976;28;1183;-55
2022/03/02 04:17:54;;;;;;;;;;;;;;;;;;4202874;28;1906;-55
2022/03/02 04:20:16;;;;;;;;;;;;;;;;;;4203014;28;837;-54
2022/03/02 04:22:37;;;;;;;;;;;;;;;;;;4202817;28;877;-55
2022/03/02 04:24:58;;;;;;;;;;;;;;;;;;4201667;28;858;-55
2022/03/02 04:27:18;;;;;;;;;;;;;;;;;;4201099;28;1213;-55
2022/03/02 04:29:39;;;;;;;;;;;;;;;;;;4202549;28;1192;-55
2022/03/02 04:32:00;;;;;;;;;;;;;;;;;;4202930;28;998;-54
2022/03/02 04:34:20;;;;;;;;;;;;;;;;;;4202793;28;975;-54
2022/03/02 04:36:41;;;;;;;;;;;;;;;;;;4202665;28;1971;-55
2022/03/02 04:39:02;;;;;;;;;;;;;;;;;;4202846;28;1088;-56
2022/03/02 04:41:22;;;;;;;;;;;;;;;;;;4204213;28;954;-55
2022/03/02 04:43:43;;;;;;;;;;;;;;;;;;4205245;28;1131;-55
2022/03/02 04:46:03;;;;;;;;;;;;;;;;;;4205282;28;942;-55
2022/03/02 04:48:24;;;;;;;;;;;;;;;;;;4205247;28;1036;-55
2022/03/02 04:50:45;;;;;;;;;;;;;;;;;;4203161;28;844;-55
2022/03/02 04:53:05;;;;;;;;;;;;;;;;;;4204437;28;956;-55
2022/03/02 04:55:26;;;;;;;;;;;;;;;;;;4205050;28;945;-55
2022/03/02 04:57:46;;;;;;;;;;;;;;;;;;4205032;28;1906;-55
2022/03/02 05:00:07;;;;;;;;;;;;;;;;;;4204288;28;904;-57
2022/03/02 05:02:28;;;;;;;;;;;;;;;;;;4205421;28;840;-57
2022/03/02 05:04:49;;;;;;;;;;;;;;;;;;4205415;28;864;-57
2022/03/02 05:07:09;;;;;;;;;;;;;;;;;;4205553;28;816;-57
2022/03/02 05:09:30;;;;;;;;;;;;;;;;;;4204326;28;945;-57
2022/03/02 05:11:50;;;;;;;;;;;;;;;;;;4205224;28;992;-57
2022/03/02 05:14:11;;;;;;;;;;;;;;;;;;4205107;28;956;-57
2022/03/02 05:16:32;;;;;;;;;;;;;;;;;;4205148;28;844;-57
2022/03/02 05:18:53;;;;;;;;;;;;;;;;;;4205053;28;1261;-57
2022/03/02 05:21:14;;;;;;;;;;;;;;;;;;4204896;28;862;-57
2022/03/02 05:23:35;;;;;;;;;;;;;;;;;;4217584;28;837;-62
2022/03/02 05:25:55;;;;;;;;;;;;;;;;;;4203392;28;814;-65
2022/03/02 05:28:16;;;;;;;;;;;;;;;;;;4199874;28;801;-62
2022/03/02 05:30:37;;;;;;;;;;;;;;;;;;4203702;28;822;-63
2022/03/02 05:32:57;;;;;;;;;;;;;;;;;;4203276;28;994;-61
2022/03/02 05:35:19;;;;;;;;;;;;;;;;;;4204662;28;987;-61
2022/03/02 05:37:43;;;;;;;;;;;;;;;;;;4204148;28;1910;-61
2022/03/02 05:40:04;;;;;;;;;;;;;;;;;;4204746;28;954;-61
2022/03/02 05:42:24;;;;;;;;;;;;;;;;;;4203548;28;949;-61
2022/03/02 05:44:46;;;;;;;;;;;;;;;;;;4204627;28;1000;-61
2022/03/02 05:47:07;;;;;;;;;;;;;;;;;;4204813;28;821;-61
2022/03/02 05:49:28;;;;;;;;;;;;;;;;;;4204164;28;1036;-61
2022/03/02 05:51:48;;;;;;;;;;;;;;;;;;4203108;28;978;-61
2022/03/02 05:54:09;;;;;;;;;;;;;;;;;;4203482;28;896;-61
2022/03/02 05:56:30;;;;;;;;;;;;;;;;;;4204127;28;864;-61
2022/03/02 05:58:50;;;;;;;;;;;;;;;;;;4204608;28;1989;-62
2022/03/02 06:01:11;;;;;;;;;;;;;;;;;;4217787;28;960;-61
2022/03/02 06:03:33;;;;;;;;;;;;;;;;;;4204530;28;875;-61
2022/03/02 06:05:53;;;;;;;;;;;;;;;;;;4203978;28;1192;-61
2022/03/02 06:08:14;;;;;;;;;;;;;;;;;;4204089;28;1141;-61
2022/03/02 06:10:35;;;;;;;;;;;;;;;;;;4202885;28;930;-62
2022/03/02 06:12:55;;;;;;;;;;;;;;;;;;4203134;28;1042;-62
2022/03/02 06:15:16;;;;;;;;;;;;;;;;;;4188793;28;903;-62
2022/03/02 06:17:37;;;;;;;;;;;;;;;;;;4204140;28;1990;-61
2022/03/02 06:19:57;;;;;;;;;;;;;;;;;;4204272;28;937;-61
2022/03/02 06:22:18;;;;;;;;;;;;;;;;;;4204226;28;861;-62
2022/03/02 06:24:38;;;;;;;;;;;;;;;;;;4204039;28;813;-61
2022/03/02 06:26:59;;;;;;;;;;;;;;;;;;4204209;28;846;-62
2022/03/02 06:29:20;;;;;;;;;;;;;;;;;;4203890;28;1010;-61
2022/03/02 06:31:41;;;;;;;;;;;;;;;;;;4204216;28;944;-62
2022/03/02 06:34:02;;;;;;;;;;;;;;;;;;4203188;28;837;-62
2022/03/02 06:36:22;;;;;;;;;;;;;;;;;;4204102;28;921;-62
2022/03/02 06:38:43;;;;;;;;;;;;;;;;;;4216676;28;1909;-62
2022/03/02 06:41:04;;;;;;;;;;;;;;;;;;4204199;28;1115;-62
2022/03/02 06:43:25;;;;;;;;;;;;;;;;;;4203783;28;937;-62
2022/03/02 06:45:46;;;;;;;;;;;;;;;;;;4203574;28;1039;-62
2022/03/02 06:48:06;;;;;;;;;;;;;;;;;;4203999;28;957;-62
2022/03/02 06:50:27;;;;;;;;;;;;;;;;;;4203640;28;770;-62
2022/03/02 06:52:48;;;;;;;;;;;;;;;;;;4203623;28;976;-62
2022/03/02 06:55:11;;;;;;;;;;;;;;;;;;4203896;28;887;-62
2022/03/02 06:57:31;;;;;;;;;;;;;;;;;;4203322;28;1973;-62
2022/03/02 06:59:52;;;;;;;;;;;;;;;;;;4202443;28;1042;-62
2022/03/02 07:02:13;;;;;;;;;;;;;;;;;;4203623;28;1101;-62
2022/03/02 07:04:34;;;;;;;;;;;;;;;;;;4202387;28;809;-62
2022/03/02 07:06:55;;;;;;;;;;;;;;;;;;4203549;28;999;-62
2022/03/02 07:09:16;;;;;;;;;;;;;;;;;;4203699;28;811;-62
2022/03/02 07:11:36;;;;;;;;;;;;;;;;;;4203462;28;996;-62
2022/03/02 07:13:57;;;;;;;;;;;;;;;;;;4203533;28;989;-62
2022/03/02 07:16:18;;;;;;;;;;;;;;;;;;4202788;28;949;-62
2022/03/02 07:18:38;;;;;;;;;;;;;;;;;;4203644;28;1914;-62
2022/03/02 07:20:59;;;;;;;;;;;;;;;;;;4203699;28;861;-62
2022/03/02 07:23:19;;;;;;;;;;;;;;;;;;4203936;28;824;-62
2022/03/02 07:25:40;;;;;;;;;;;;;;;;;;4203622;28;824;-62
2022/03/02 07:28:01;;;;;;;;;;;;;;;;;;4203522;28;1003;-62
2022/03/02 07:30:22;;;;;;;;;;;;;;;;;;4203637;28;1133;-62
2022/03/02 07:32:45;;;;;;;;;;;;;;;;;;4203436;28;912;-62
2022/03/02 07:35:05;;;;;;;;;;;;;;;;;;4203337;28;854;-62
2022/03/02 07:37:26;;;;;;;;;;;;;;;;;;4202365;28;830;-62
2022/03/02 07:39:46;;;;;;;;;;;;;;;;;;4203524;28;945;-62
2022/03/02 07:42:09;;;;;;;;;;;;;;;;;;4203190;28;1191;-62
2022/03/02 07:44:32;;;;;;;;;;;;;;;;;;4216212;28;869;-62
2022/03/02 07:46:53;;;;;;;;;;;;;;;;;;4203371;28;1048;-62
2022/03/02 07:49:14;;;;;;;;;;;;;;;;;;4203332;28;1004;-62
2022/03/02 07:51:35;;;;;;;;;;;;;;;;;;4202987;28;1070;-62
2022/03/02 07:53:56;;;;;;;;;;;;;;;;;;4203174;28;988;-62
2022/03/02 07:56:16;;;;;;;;;;;;;;;;;;4203040;28;1006;-62
2022/03/02 07:58:37;;;;;;;;;;;;;;;;;;4202965;28;1914;-62
2022/03/02 08:00:58;;;;;;;;;;;;;;;;;;4202634;28;864;-62
2022/03/02 08:03:18;;;;;;;;;;;;;;;;;;4201806;28;898;-62
2022/03/02 08:05:39;;;;;;;;;;;;;;;;;;4203071;28;1013;-63
2022/03/02 08:08:00;;;;;;;;;;;;;;;;;;4187239;28;993;-62
2022/03/02 08:10:21;;;;;;;;;;;;;;;;;;4202629;28;934;-62
2022/03/02 08:12:42;;;;;;;;;;;;;;;;;;4203042;28;925;-62
2022/03/02 08:15:03;;;;;;;;;;;;;;;;;;4204139;28;851;-62
2022/03/02 08:17:23;;;;;;;;;;;;;;;;;;4205031;28;957;-62
2022/03/02 08:19:46;;;;;;;;;;;;;;;;;;4218857;28;1972;-62
2022/03/02 08:22:08;;;;;;;;;;;;;;;;;;4218709;28;1015;-62
2022/03/02 08:24:29;;;;;;;;;;;;;;;;;;4205547;28;958;-63
2022/03/02 08:26:49;;;;;;;;;;;;;;;;;;4205509;28;817;-62
2022/03/02 08:29:10;;;;;;;;;;;;;;;;;;4205540;28;849;-62
2022/03/02 08:31:31;;;;;;;;;;;;;;;;;;4205867;28;915;-62
2022/03/02 08:33:51;;;;;;;;;;;;;;;;;;4204491;28;1030;-62
2022/03/02 08:36:12;;;;;;;;;;;;;;;;;;4204573;28;984;-62
2022/03/02 08:38:35;;;;;;;;;;;;;;;;;;4205360;28;1918;-62
2022/03/02 08:40:56;;;;;;;;;;;;;;;;;;4205420;28;937;-63
2022/03/02 08:43:17;;;;;;;;;;;;;;;;;;4205541;28;1064;-62
2022/03/02 08:45:37;;;;;;;;;;;;;;;;;;4204241;28;1135;-63
2022/03/02 08:48:00;;;;;;;;;;;;;;;;;;4205526;28;849;-62
2022/03/02 08:50:20;;;;;;;;;;;;;;;;;;4205611;28;1018;-62
2022/03/02 08:52:41;;;;;;;;;;;;;;;;;;4205454;28;893;-62
2022/03/02 08:55:04;;;;;;;;;;;;;;;;;;4205294;28;857;-62
2022/03/02 08:57:24;;;;;;;;;;;;;;;;;;4205616;28;962;-62
2022/03/02 08:59:45;;;;;;;;;;;;;;;;;;4205563;28;1933;-63
2022/03/02 09:02:06;;;;;;;;;;;;;;;;;;4205418;28;853;-62
2022/03/02 09:04:26;;;;;;;;;;;;;;;;;;4205402;28;848;-62
2022/03/02 09:06:47;;;;;;;;;;;;;;;;;;4217976;28;836;-62
2022/03/02 09:09:08;;;;;;;;;;;;;;;;;;4204690;28;880;-62
2022/03/02 09:11:28;;;;;;;;;;;;;;;;;;4205427;28;884;-62
2022/03/02 09:13:50;;;;;;;;;;;;;;;;;;4204104;28;946;-62
2022/03/02 09:16:11;;;;;;;;;;;;;;;;;;4205133;28;948;-62
2022/03/02 09:18:31;;;;;;;;;;;;;;;;;;4203576;28;1970;-63
2022/03/02 09:20:53;;;;;;;;;;;;;;;;;;4205042;28;987;-62
2022/03/02 09:23:13;;;;;;;;;;;;;;;;;;4205011;28;881;-63
2022/03/02 09:25:34;;;;;;;;;;;;;;;;;;4205299;28;933;-63
2022/03/02 09:27:55;;;;;;;;;;;;;;;;;;4204559;28;837;-63
2022/03/02 09:30:16;;;;;;;;;;;;;;;;;;4205075;28;808;-63
2022/03/02 09:32:36;;;;;;;;;;;;;;;;;;4205201;28;1024;-64
2022/03/02 09:34:59;;;;;;;;;;;;;;;;;;4218298;28;842;-63
2022/03/02 09:37:19;;;;;;;;;;;;;;;;;;4218301;28;1076;-63
2022/03/02 09:39:40;;;;;;;;;;;;;;;;;;4203659;28;1909;-63
2022/03/02 09:42:00;;;;;;;;;;;;;;;;;;4218170;28;1028;-63
2022/03/02 09:44:21;;;;;;;;;;;;;;;;;;4204863;28;1108;-63
2022/03/02 09:46:42;;;;;;;;;;;;;;;;;;4204700;28;913;-63
2022/03/02 09:49:03;;;;;;;;;;;;;;;;;;4204799;28;933;-64
2022/03/02 09:51:23;;;;;;;;;;;;;;;;;;4204432;28;1145;-63
2022/03/02 09:53:44;;;;;;;;;;;;;;;;;;4204699;28;950;-61
2022/03/02 09:56:04;;;;;;;;;;;;;;;;;;4204701;28;1031;-61
2022/03/02 09:58:25;;;;;;;;;;;;;;;;;;4204732;28;814;-61
2022/03/02 10:00:46;;;;;;;;;;;;;;;;;;4204805;28;986;-60
2022/03/02 10:03:07;;;;;;;;;;;;;;;;;;4218179;28;932;-61
2022/03/02 10:05:27;;;;;;;;;;;;;;;;;;4204557;28;1188;-60
2022/03/02 10:07:48;;;;;;;;;;;;;;;;;;4204450;28;1329;-59
2022/03/02 10:10:09;;;;;;;;;;;;;;;;;;4204419;28;830;-59
2022/03/02 10:12:30;;;;;;;;;;;;;;;;;;4204558;28;829;-59
2022/03/02 10:14:50;;;;;;;;;;;;;;;;;;4204526;28;787;-59
2022/03/02 10:17:11;;;;;;;;;;;;;;;;;;4204277;28;938;-59
2022/03/02 10:19:31;;;;;;;;;;;;;;;;;;4204459;28;1931;-59
2022/03/02 10:21:52;;;;;;;;;;;;;;;;;;4203971;28;977;-59
2022/03/02 10:24:14;;;;;;;;;;;;;;;;;;4204295;28;1353;-59
2022/03/02 10:26:34;;;;;;;;;;;;;;;;;;4202430;28;1070;-59
2022/03/02 10:28:56;;;;;;;;;;;;;;;;;;4204364;28;952;-59
2022/03/02 10:31:17;;;;;;;;;;;;;;;;;;4204187;28;1013;-59
2022/03/02 10:33:38;;;;;;;;;;;;;;;;;;4204315;28;825;-59
2022/03/02 10:35:58;;;;;;;;;;;;;;;;;;4217427;28;851;-59
2022/03/02 10:38:19;;;;;;;;;;;;;;;;;;4202671;28;1228;-58
2022/03/02 10:40:40;;;;;;;;;;;;;;;;;;4204163;28;1978;-59
2022/03/02 10:43:01;;;;;;;;;;;;;;;;;;4204381;28;819;-58
2022/03/02 10:45:22;;;;;;;;;;;;;;;;;;4203830;28;1041;-59
2022/03/02 10:47:42;;;;;;;;;;;;;;;;;;4204233;28;825;-59
2022/03/02 10:50:03;;;;;;;;;;;;;;;;;;4203907;28;947;-59
2022/03/02 10:52:24;;;;;;;;;;;;;;;;;;4204048;28;945;-59
2022/03/02 10:54:44;;;;;;;;;;;;;;;;;;4203621;28;1071;-59
2022/03/02 10:57:06;;;;;;;;;;;;;;;;;;4203465;28;924;-59
2022/03/02 10:59:26;;;;;;;;;;;;;;;;;;4203688;28;1986;-59
2022/03/02 11:01:48;;;;;;;;;;;;;;;;;;4203483;28;978;-59
2022/03/02 11:04:09;;;;;;;;;;;;;;;;;;4203602;28;1098;-59
2022/03/02 11:06:30;;;;;;;;;;;;;;;;;;4203381;28;1005;-59
2022/03/02 11:08:50;;;;;;;;;;;;;;;;;;4203504;28;806;-59
2022/03/02 11:11:11;;;;;;;;;;;;;;;;;;4203283;28;990;-59
2022/03/02 11:13:32;;;;;;;;;;;;;;;;;;4203759;28;1037;-59
2022/03/02 11:15:53;;;;;;;;;;;;;;;;;;4203656;28;1159;-59
2022/03/02 11:18:16;;;;;;;;;;;;;;;;;;4203773;28;828;-59
2022/03/02 11:20:37;;;;;;;;;;;;;;;;;;4203651;28;1988;-59
2022/03/02 11:22:58;;;;;;;;;;;;;;;;;;4202655;28;969;-59
2022/03/02 11:25:19;;;;;;;;;;;;;;;;;;4203581;28;848;-59
2022/03/02 11:27:40;;;;;;;;;;;;;;;;;;4203507;28;1285;-58
2022/03/02 11:33:01;;;;;;;;;;;;;;;;;;4218937;28;1412;-57
2022/03/02 11:35:22;;;;;;;;;;;;;;;;;;4219500;28;854;-58
2022/03/02 11:37:42;;;;;;;;;;;;;;;;;;4218182;28;1096;-59
2022/03/02 11:40:04;;;;;;;;;;;;;;;;;;4219790;28;1910;-57
2022/03/02 11:42:24;;;;;;;;;;;;;;;;;;4219956;28;940;-57
2022/03/02 11:44:45;;;;;;;;;;;;;;;;;;4219900;28;851;-59
2022/03/02 11:47:06;;;;;;;;;;;;;;;;;;4219852;28;1132;-58
2022/03/02 11:49:27;;;;;;;;;;;;;;;;;;4220163;28;854;-58
2022/03/02 11:51:47;;;;;;;;;;;;;;;;;;4207424;28;1033;-58
2022/03/02 11:54:10;;;;;;;;;;;;;;;;;;4222694;28;952;-58
2022/03/02 11:56:31;;;;;;;;;;;;;;;;;;4222905;28;990;-57
2022/03/02 11:58:51;;;;;;;;;;;;;;;;;;4221775;28;1078;-58
2022/03/02 12:01:12;;;;;;;;;;;;;;;;;;4222234;28;1909;-57
2022/03/02 12:03:34;;;;;;;;;;;;;;;;;;4222286;28;1125;-58
2022/03/02 12:05:54;;;;;;;;;;;;;;;;;;4222613;28;836;-57
2022/03/02 12:08:16;;;;;;;;;;;;;;;;;;4222881;28;1019;-60
2022/03/02 12:10:37;;;;;;;;;;;;;;;;;;4222225;28;861;-57
2022/03/02 12:12:58;;;;;;;;;;;;;;;;;;4220743;28;1346;-60
2022/03/02 12:15:18;;;;;;;;;;;;;;;;;;4221662;28;850;-58
2022/03/02 12:17:39;;;;;;;;;;;;;;;;;;4221678;28;940;-57
2022/03/02 12:20:00;;;;;;;;;;;;;;;;;;4221088;28;1956;-59
2022/03/02 12:22:21;;;;;;;;;;;;;;;;;;4221638;28;871;-58
2022/03/02 12:24:41;;;;;;;;;;;;;;;;;;4220502;28;895;-59
2022/03/02 12:27:02;;;;;;;;;;;;;;;;;;4220873;28;914;-59
2022/03/02 12:29:25;;;;;;;;;;;;;;;;;;4203730;28;1014;-59
2022/03/02 12:31:47;;;;;;;;;;;;;;;;;;4208811;28;1082;-61
2022/03/02 12:34:07;;;;;;;;;;;;;;;;;;4204249;28;3819;-60
2022/03/02 12:36:28;;;;;;;;;;;;;;;;;;4221030;28;837;-61
2022/03/02 12:38:49;;;;;;;;;;;;;;;;;;4220694;28;967;-61
2022/03/02 12:41:10;;;;;;;;;;;;;;;;;;4220703;28;1989;-57
2022/03/02 12:43:33;;;;;;;;;;;;;;;;;;4220230;28;838;-60
2022/03/02 12:45:58;;;;;;;;;;;;;;;;;;4219602;28;959;-57
2022/03/02 12:48:18;;;;;;;;;;;;;;;;;;4222168;28;926;-59
2022/03/02 12:50:39;;;;;;;;;;;;;;;;;;4222167;28;960;-59
2022/03/02 12:53:00;;;;;;;;;;;;;;;;;;4221807;28;871;-59
2022/03/02 12:55:20;;;;;;;;;;;;;;;;;;4222007;28;911;-63
2022/03/02 12:57:41;;;;;;;;;;;;;;;;;;4221936;28;861;-59
2022/03/02 13:00:02;;;;;;;;;;;;;;;;;;4220745;28;1909;-59
2022/03/02 13:02:23;;;;;;;;;;;;;;;;;;4220978;28;856;-61
2022/03/02 13:04:44;;;;;;;;;;;;;;;;;;4221854;28;1219;-59
2022/03/02 13:07:04;;;;;;;;;;;;;;;;;;4221906;28;770;-58
2022/03/02 13:09:24;;;;;;;;;;;;;;;;;;4221881;28;854;-58
2022/03/02 13:11:45;;;;;;;;;;;;;;;;;;4220834;28;2952;-58
2022/03/02 13:14:06;;;;;;;;;;;;;;;;;;4215299;28;2394;-58
2022/03/02 13:16:26;;;;;;;;;;;;;;;;;;4220971;28;1305;-59
2022/03/02 13:18:47;;;;;;;;;;;;;;;;;;4221983;28;867;-58
2022/03/02 13:21:08;;;;;;;;;;;;;;;;;;4221889;28;2000;-58
2022/03/02 13:23:29;;;;;;;;;;;;;;;;;;4213465;28;1033;-58
2022/03/02 13:25:50;;;;;;;;;;;;;;;;;;4204783;28;905;-58
2022/03/02 13:28:12;;;;;;;;;;;;;;;;;;4218275;28;826;-58
2022/03/02 13:30:33;;;;;;;;;;;;;;;;;;4217327;28;947;-61
2022/03/02 13:32:54;;;;;;;;;;;;;;;;;;4220019;28;1019;-58
2022/03/02 13:35:16;;;;;;;;;;;;;;;;;;4220215;28;1238;-58
2022/03/02 13:37:37;;;;;;;;;;;;;;;;;;4219733;28;1072;-59
2022/03/02 13:39:58;;;;;;;;;;;;;;;;;;4220545;28;1910;-59
2022/03/02 13:42:19;;;;;;;;;;;;;;;;;;4221722;28;953;-58
2022/03/02 13:44:39;;;;;;;;;;;;;;;;;;4221599;28;1232;-58
2022/03/02 13:47:00;;;;;;;;;;;;;;;;;;4221435;28;809;-58
2022/03/02 13:49:21;;;;;;;;;;;;;;;;;;4220539;28;940;-58
2022/03/02 13:51:41;;;;;;;;;;;;;;;;;;4221630;28;880;-58
2022/03/02 13:54:03;;;;;;;;;;;;;;;;;;4220919;28;1094;-59
2022/03/02 13:56:24;;;;;;;;;;;;;;;;;;4221419;28;926;-58
2022/03/02 13:58:45;;;;;;;;;;;;;;;;;;4221466;28;852;-58
2022/03/02 14:01:06;;;;;;;;;;;;;;;;;;4221366;28;1913;-58
2022/03/02 14:03:27;;;;;;;;;;;;;;;;;;4221788;28;1022;-58
2022/03/02 14:05:48;;;;;;;;;;;;;;;;;;4221573;28;959;-58
2022/03/02 14:08:09;;;;;;;;;;;;;;;;;;4221450;28;864;-58
2022/03/02 14:10:29;;;;;;;;;;;;;;;;;;4221228;28;955;-58
2022/03/02 14:12:50;;;;;;;;;;;;;;;;;;4220372;28;919;-57
2022/03/02 14:15:11;;;;;;;;;;;;;;;;;;4221224;28;954;-58
2022/03/02 14:17:34;;;;;;;;;;;;;;;;;;4221404;28;873;-58
2022/03/02 14:19:55;;;;;;;;;;;;;;;;;;4221169;28;809;-58
2022/03/02 14:22:15;;;;;;;;;;;;;;;;;;4220978;28;895;-58
2022/03/02 14:24:36;;;;;;;;;;;;;;;;;;4221077;28;980;-58
2022/03/02 14:26:58;;;;;;;;;;;;;;;;;;4205488;28;856;-58
2022/03/02 14:29:21;;;;;;;;;;;;;;;;;;4221131;28;1110;-58
2022/03/02 14:31:41;;;;;;;;;;;;;;;;;;4220970;28;1242;-58
2022/03/02 14:34:02;;;;;;;;;;;;;;;;;;4221064;28;1114;-58
2022/03/02 14:36:22;;;;;;;;;;;;;;;;;;4220810;28;925;-58
2022/03/02 14:38:43;;;;;;;;;;;;;;;;;;4220656;28;1085;-58
2022/03/02 14:41:03;;;;;;;;;;;;;;;;;;4220348;28;1930;-58
2022/03/02 14:43:24;;;;;;;;;;;;;;;;;;4220114;28;890;-58
2022/03/02 14:45:45;;;;;;;;;;;;;;;;;;4220654;28;840;-59
2022/03/02 14:48:05;;;;;;;;;;;;;;;;;;4220543;28;841;-58
2022/03/02 14:50:26;;;;;;;;;;;;;;;;;;4220709;28;898;-58
2022/03/02 14:52:47;;;;;;;;;;;;;;;;;;4221604;28;830;-58
2022/03/02 14:55:08;;;;;;;;;;;;;;;;;;4219107;28;963;-58
2022/03/02 14:57:28;;;;;;;;;;;;;;;;;;4220260;28;1008;-58
2022/03/02 14:59:49;;;;;;;;;;;;;;;;;;4220504;28;847;-58
2022/03/02 15:02:10;;;;;;;;;;;;;;;;;;4220282;28;1917;-58
2022/03/02 15:04:31;;;;;;;;;;;;;;;;;;4220125;28;1014;-58
2022/03/02 15:06:53;;;;;;;;;;;;;;;;;;4220463;28;824;-58
2022/03/02 15:09:14;;;;;;;;;;;;;;;;;;4219677;28;1128;-58
2022/03/02 15:11:35;;;;;;;;;;;;;;;;;;4220297;28;996;-58
2022/03/02 15:16:34;;;;;;;;;;;;;;;;;;4220257;28;829;-58
2022/03/02 15:18:54;;;;;;;;;;;;;;;;;;4220393;28;973;-58
2022/03/02 15:21:15;;;;;;;;;;;;;;;;;;4220170;28;1926;-58
2022/03/02 15:23:36;;;;;;;;;;;;;;;;;;4220440;28;993;-58
2022/03/02 15:25:57;;;;;;;;;;;;;;;;;;4219529;28;952;-58
2022/03/02 15:28:18;;;;;;;;;;;;;;;;;;4220181;28;859;-58
2022/03/02 15:30:39;;;;;;;;;;;;;;;;;;4220045;28;838;-58
2022/03/02 15:33:00;;;;;;;;;;;;;;;;;;4204667;28;1027;-58
2022/03/02 15:35:20;;;;;;;;;;;;;;;;;;4220159;28;1048;-58
2022/03/02 15:37:43;;;;;;;;;;;;;;;;;;4220175;28;938;-58
2022/03/02 15:40:04;;;;;;;;;;;;;;;;;;4220252;28;933;-58
2022/03/02 15:42:25;;;;;;;;;;;;;;;;;;4220241;28;1985;-58
2022/03/02 15:44:47;;;;;;;;;;;;;;;;;;4220019;28;930;-58
2022/03/02 15:47:08;;;;;;;;;;;;;;;;;;4219659;28;978;-58
2022/03/02 15:49:29;;;;;;;;;;;;;;;;;;4220023;28;948;-58
2022/03/02 15:51:49;;;;;;;;;;;;;;;;;;4219794;28;809;-59
2022/03/02 15:54:10;;;;;;;;;;;;;;;;;;4219940;28;936;-58
2022/03/02 15:56:31;;;;;;;;;;;;;;;;;;4219610;28;883;-58
2022/03/02 15:58:52;;;;;;;;;;;;;;;;;;4219843;28;955;-58
2022/03/02 16:01:13;;;;;;;;;;;;;;;;;;4219905;28;1930;-58
2022/03/02 16:03:34;;;;;;;;;;;;;;;;;;4204150;28;1037;-58
2022/03/02 16:05:54;;;;;;;;;;;;;;;;;;4219463;28;881;-58
2022/03/02 16:08:16;;;;;;;;;;;;;;;;;;4219989;28;860;-58
2022/03/02 16:10:38;;;;;;;;;;;;;;;;;;4219645;28;910;-58
2022/03/02 16:12:58;;;;;;;;;;;;;;;;;;4219364;28;938;-58
2022/03/02 16:15:20;;;;;;;;;;;;;;;;;;4219727;28;868;-58
2022/03/02 16:17:41;;;;;;;;;;;;;;;;;;4219481;28;825;-58
2022/03/02 16:20:02;;;;;;;;;;;;;;;;;;4219644;28;1301;-58
2022/03/02 16:22:23;;;;;;;;;;;;;;;;;;4219600;28;1909;-59
2022/03/02 16:24:44;;;;;;;;;;;;;;;;;;4219500;28;872;-58
2022/03/02 16:27:05;;;;;;;;;;;;;;;;;;4219567;28;948;-58
2022/03/02 16:29:26;;;;;;;;;;;;;;;;;;4219602;28;842;-58
2022/03/02 16:31:48;;;;;;;;;;;;;;;;;;4219598;28;850;-58
2022/03/02 16:34:09;;;;;;;;;;;;;;;;;;4218957;28;1166;-57
2022/03/02 16:36:30;;;;;;;;;;;;;;;;;;4221296;28;1405;-58